Hahnville, Louisiana
Current Conditions -  °F | °C
As of 7:53 AM on Saturday 22 Nov 2014 (Local Time) from KMSY Reporting Station
Scattered Clouds Scattered Clouds  
Wind Chill: 59°   Ceiling: Unl
Heat Index: 59°   Visibility: 10mi
Dew Point: 52°   Wind: 7mph
Humidity: 78%   Direction: 80°E
Pressure: 30.21"   Gusts: NA
Location:  29.98°N, 90.41°W
Report Text: KMSY 221353Z 08006KT 10SM FEW045 SCT250 15/11 A3021 RMK AO2 SLP233 T01500111
Loading
Personal Weather Stations






























Interactive Weather Map New forecast layout! Learn more

10-Day Weather Forecast

Advertisements
Track Severe Weather on mobile